Time,TemperatureF,DewpointF,PressureIn,WindDirection,WindDirectionDegrees,WindSpeedMPH,WindSpeedGustMPH,Humidity,HourlyPrecipIn,Conditions,Clouds,dailyrainin,SoftwareType,DateUTC
2013-08-26 00:02:00,76.7,65.3,30.14,North,-999,0.0,0.0,68,0.00,,,-99.99,WeatherLink 5.4,2013-08-26 04:02:00,
2013-08-26 00:30:00,76.0,65.9,30.14,WNW,292,0.0,1.0,71,0.00,,,-99.99,WeatherLink 5.4,2013-08-26 04:30:00,
2013-08-26 00:33:00,76.0,65.9,30.14,WNW,292,0.0,1.0,71,0.00,,,-99.99,WeatherLink 5.4,2013-08-26 04:33:00,
2013-08-26 01:00:00,75.4,66.5,30.14,North,-999,0.0,0.0,74,0.00,,,-99.99,WeatherLink 5.4,2013-08-26 05:00:00,
2013-08-26 01:02:00,75.4,66.5,30.14,North,-999,0.0,0.0,74,0.00,,,-99.99,WeatherLink 5.4,2013-08-26 05:02:00,
2013-08-26 01:30:00,74.7,66.2,30.14,North,-999,0.0,0.0,75,0.00,,,-99.99,WeatherLink 5.4,2013-08-26 05:30:00,
2013-08-26 01:32:00,74.7,66.2,30.14,North,-999,0.0,0.0,75,0.00,,,-99.99,WeatherLink 5.4,2013-08-26 05:32:00,
2013-08-26 02:00:00,74.4,66.7,30.14,North,-999,0.0,0.0,77,0.00,,,-99.99,WeatherLink 5.4,2013-08-26 06:00:00,
2013-08-26 02:02:00,74.4,66.7,30.14,North,-999,0.0,0.0,77,0.00,,,-99.99,WeatherLink 5.4,2013-08-26 06:02:00,
2013-08-26 02:30:00,74.0,66.7,30.13,North,-999,0.0,0.0,78,0.00,,,-99.99,WeatherLink 5.4,2013-08-26 06:30:00,
2013-08-26 02:32:00,74.0,66.7,30.13,North,-999,0.0,0.0,78,0.00,,,-99.99,WeatherLink 5.4,2013-08-26 06:32:00,
2013-08-26 03:00:00,73.7,67.1,30.12,North,-999,0.0,0.0,80,0.00,,,-99.99,WeatherLink 5.4,2013-08-26 07:00:00,
2013-08-26 03:02:00,73.7,67.1,30.12,North,-999,0.0,0.0,80,0.00,,,-99.99,WeatherLink 5.4,2013-08-26 07:02:00,
2013-08-26 03:30:00,72.8,66.3,30.12,North,-999,0.0,0.0,80,0.00,,,-99.99,WeatherLink 5.4,2013-08-26 07:30:00,
2013-08-26 03:32:00,72.8,66.3,30.12,North,-999,0.0,0.0,80,0.00,,,-99.99,WeatherLink 5.4,2013-08-26 07:32:00,
2013-08-26 04:00:00,72.3,66.8,30.11,North,-999,0.0,0.0,83,0.00,,,-99.99,WeatherLink 5.4,2013-08-26 08:00:00,
2013-08-26 04:30:00,71.8,66.7,30.11,North,-999,0.0,0.0,84,0.00,,,-99.99,WeatherLink 5.4,2013-08-26 08:30:00,
2013-08-26 05:00:00,71.5,66.8,30.11,WNW,292,0.0,1.0,85,0.00,,,-99.99,WeatherLink 5.4,2013-08-26 09:00:00,
2013-08-26 05:30:00,71.1,66.4,30.11,North,-999,0.0,0.0,85,0.00,,,-99.99,WeatherLink 5.4,2013-08-26 09:30:00,
2013-08-26 05:33:00,71.1,66.4,30.11,North,-999,0.0,0.0,85,0.00,,,-99.99,WeatherLink 5.4,2013-08-26 09:33:00,
2013-08-26 06:00:00,70.8,66.1,30.11,WNW,292,0.0,1.0,85,0.00,,,-99.99,WeatherLink 5.4,2013-08-26 10:00:00,
2013-08-26 06:03:00,70.8,66.1,30.11,WNW,292,0.0,1.0,85,0.00,,,-99.99,WeatherLink 5.4,2013-08-26 10:03:00,
2013-08-26 06:30:00,70.1,65.7,30.11,North,-999,0.0,0.0,86,0.00,,,-99.99,WeatherLink 5.4,2013-08-26 10:30:00,
2013-08-26 06:33:00,70.1,65.7,30.11,North,-999,0.0,0.0,86,0.00,,,-99.99,WeatherLink 5.4,2013-08-26 10:33:00,
2013-08-26 07:00:00,69.6,65.6,30.12,North,-999,0.0,0.0,87,0.00,,,-99.99,WeatherLink 5.4,2013-08-26 11:00:00,
2013-08-26 07:03:00,69.6,65.6,30.12,North,-999,0.0,0.0,87,0.00,,,-99.99,WeatherLink 5.4,2013-08-26 11:03:00,
2013-08-26 07:30:00,69.3,65.6,30.13,North,-999,0.0,0.0,88,0.00,,,-99.99,WeatherLink 5.4,2013-08-26 11:30:00,
2013-08-26 07:33:00,69.3,65.6,30.13,North,-999,0.0,0.0,88,0.00,,,-99.99,WeatherLink 5.4,2013-08-26 11:33:00,
2013-08-26 08:00:00,69.6,65.9,30.14,North,-999,0.0,0.0,88,0.00,,,-99.99,WeatherLink 5.4,2013-08-26 12:00:00,
2013-08-26 08:03:00,69.6,65.9,30.14,North,-999,0.0,0.0,88,0.00,,,-99.99,WeatherLink 5.4,2013-08-26 12:03:00,
2013-08-26 08:30:00,70.9,66.2,30.15,North,-999,0.0,0.0,85,0.00,,,-99.99,WeatherLink 5.4,2013-08-26 12:30:00,
2013-08-26 08:33:00,70.9,66.2,30.15,North,-999,0.0,0.0,85,0.00,,,-99.99,WeatherLink 5.4,2013-08-26 12:33:00,
2013-08-26 09:00:00,73.0,66.8,30.15,WNW,292,0.0,1.0,81,0.00,,,-99.99,WeatherLink 5.4,2013-08-26 13:00:00,
2013-08-26 09:03:00,73.0,66.8,30.15,WNW,292,0.0,1.0,81,0.00,,,-99.99,WeatherLink 5.4,2013-08-26 13:03:00,
2013-08-26 09:30:00,75.1,65.9,30.15,ENE,67,0.0,3.0,73,0.00,,,-99.99,WeatherLink 5.4,2013-08-26 13:30:00,
2013-08-26 10:00:00,77.4,66.4,30.15,North,0,0.0,6.0,69,0.00,,,-99.99,WeatherLink 5.4,2013-08-26 14:00:00,
2013-08-26 10:02:00,77.4,66.4,30.15,North,0,0.0,6.0,69,0.00,,,-99.99,WeatherLink 5.4,2013-08-26 14:02:00,
2013-08-26 10:30:00,79.0,66.7,30.15,North,0,1.0,7.0,66,0.00,,,-99.99,WeatherLink 5.4,2013-08-26 14:30:00,
2013-08-26 10:32:00,79.0,66.7,30.15,North,0,1.0,7.0,66,0.00,,,-99.99,WeatherLink 5.4,2013-08-26 14:32:00,
2013-08-26 11:00:00,80.7,67.4,30.14,North,0,1.0,8.0,64,0.00,,,-99.99,WeatherLink 5.4,2013-08-26 15:00:00,
2013-08-26 11:02:00,80.7,67.4,30.14,North,0,1.0,8.0,64,0.00,,,-99.99,WeatherLink 5.4,2013-08-26 15:02:00,
2013-08-26 11:30:00,82.6,68.3,30.14,North,0,1.0,6.0,62,0.00,,,-99.99,WeatherLink 5.4,2013-08-26 15:30:00,
2013-08-26 11:33:00,82.6,68.3,30.14,North,0,1.0,6.0,62,0.00,,,-99.99,WeatherLink 5.4,2013-08-26 15:33:00,
2013-08-26 12:00:00,83.6,68.2,30.12,North,0,2.0,7.0,60,0.00,,,-99.99,WeatherLink 5.4,2013-08-26 16:00:00,
2013-08-26 12:03:00,83.6,68.2,30.12,North,0,2.0,7.0,60,0.00,,,-99.99,WeatherLink 5.4,2013-08-26 16:03:00,
2013-08-26 12:30:00,83.8,67.9,30.12,NE,45,1.0,8.0,59,0.00,,,-99.99,WeatherLink 5.4,2013-08-26 16:30:00,
2013-08-26 12:33:00,83.8,67.9,30.12,NE,45,1.0,8.0,59,0.00,,,-99.99,WeatherLink 5.4,2013-08-26 16:33:00,
2013-08-26 13:00:00,84.9,68.5,30.11,East,90,2.0,6.0,58,0.00,,,-99.99,WeatherLink 5.4,2013-08-26 17:00:00,
2013-08-26 13:03:00,84.9,68.5,30.11,East,90,2.0,6.0,58,0.00,,,-99.99,WeatherLink 5.4,2013-08-26 17:03:00,
2013-08-26 13:30:00,85.3,68.3,30.10,East,90,2.0,7.0,57,0.00,,,-99.99,WeatherLink 5.4,2013-08-26 17:30:00,
2013-08-26 13:33:00,85.3,68.3,30.10,East,90,2.0,7.0,57,0.00,,,-99.99,WeatherLink 5.4,2013-08-26 17:33:00,
2013-08-26 14:00:00,87.0,67.2,30.09,North,0,1.0,5.0,52,0.00,,,-99.99,WeatherLink 5.4,2013-08-26 18:00:00,
2013-08-26 14:03:00,87.0,67.2,30.09,North,0,1.0,5.0,52,0.00,,,-99.99,WeatherLink 5.4,2013-08-26 18:03:00,
2013-08-26 14:30:00,86.7,66.4,30.08,East,90,1.0,5.0,51,0.00,,,-99.99,WeatherLink 5.4,2013-08-26 18:30:00,
2013-08-26 14:32:00,86.7,66.4,30.08,East,90,1.0,5.0,51,0.00,,,-99.99,WeatherLink 5.4,2013-08-26 18:32:00,
2013-08-26 15:00:00,86.1,65.9,30.06,ESE,112,1.0,7.0,51,0.00,,,-99.99,WeatherLink 5.4,2013-08-26 19:00:00,
2013-08-26 15:02:00,86.1,65.9,30.06,ESE,112,1.0,7.0,51,0.00,,,-99.99,WeatherLink 5.4,2013-08-26 19:02:00,
2013-08-26 15:30:00,88.0,65.2,30.04,North,0,1.0,3.0,47,0.00,,,-99.99,WeatherLink 5.4,2013-08-26 19:30:00,
2013-08-26 15:32:00,88.0,65.2,30.04,North,0,1.0,3.0,47,0.00,,,-99.99,WeatherLink 5.4,2013-08-26 19:32:00,
2013-08-26 16:00:00,88.0,64.6,30.03,ENE,67,2.0,6.0,46,0.00,,,-99.99,WeatherLink 5.4,2013-08-26 20:00:00,
2013-08-26 16:02:00,88.0,64.6,30.03,ENE,67,2.0,6.0,46,0.00,,,-99.99,WeatherLink 5.4,2013-08-26 20:02:00,
2013-08-26 16:30:00,89.0,64.3,30.02,North,0,1.0,3.0,44,0.00,,,-99.99,WeatherLink 5.4,2013-08-26 20:30:00,
2013-08-26 16:33:00,89.0,64.3,30.02,North,0,1.0,3.0,44,0.00,,,-99.99,WeatherLink 5.4,2013-08-26 20:33:00,
2013-08-26 17:00:00,-999.0,-99.9,30.03,NNE,22,0.0,2.0,-999,0.00,,,-99.99,WeatherLink 5.4,2013-08-26 21:00:00,
2013-08-26 17:03:00,-999.0,-99.9,30.03,NNE,22,0.0,2.0,-999,0.00,,,-99.99,WeatherLink 5.4,2013-08-26 21:03:00,
2013-08-26 17:30:00,-999.0,-99.9,30.02,North,-999,0.0,0.0,-999,0.00,,,-99.99,WeatherLink 5.4,2013-08-26 21:30:00,
2013-08-26 17:33:00,-999.0,-99.9,30.02,North,-999,0.0,0.0,-999,0.00,,,-99.99,WeatherLink 5.4,2013-08-26 21:33:00,
2013-08-26 18:00:00,-999.0,-99.9,30.00,North,-999,0.0,0.0,49,0.00,,,-99.99,WeatherLink 5.4,2013-08-26 22:00:00,
2013-08-26 18:03:00,-999.0,-99.9,30.00,North,-999,0.0,0.0,49,0.00,,,-99.99,WeatherLink 5.4,2013-08-26 22:03:00,
2013-08-26 18:30:00,-999.0,-99.9,30.01,North,0,0.0,3.0,-999,0.00,,,-99.99,WeatherLink 5.4,2013-08-26 22:30:00,
2013-08-26 18:33:00,-999.0,-99.9,30.01,North,0,0.0,3.0,-999,0.00,,,-99.99,WeatherLink 5.4,2013-08-26 22:33:00,
2013-08-26 19:00:00,87.6,64.9,29.99,NNE,22,2.0,7.0,47,0.00,,,-99.99,WeatherLink 5.4,2013-08-26 23:00:00,
2013-08-26 19:03:00,87.6,64.9,29.99,NNE,22,2.0,7.0,47,0.00,,,-99.99,WeatherLink 5.4,2013-08-26 23:03:00,
2013-08-26 19:30:00,86.3,66.0,29.99,North,0,0.0,3.0,51,0.00,,,-99.99,WeatherLink 5.4,2013-08-26 23:30:00,
2013-08-26 19:32:00,86.3,66.0,29.99,North,0,0.0,3.0,51,0.00,,,-99.99,WeatherLink 5.4,2013-08-26 23:32:00,
2013-08-26 20:00:00,85.3,67.8,29.99,North,0,1.0,7.0,56,0.00,,,-99.99,WeatherLink 5.4,2013-08-27 00:00:00,
2013-08-26 20:02:00,85.3,67.8,29.99,North,0,1.0,7.0,56,0.00,,,-99.99,WeatherLink 5.4,2013-08-27 00:02:00,
2013-08-26 20:30:00,84.0,67.6,29.99,North,0,1.0,7.0,58,0.00,,,-99.99,WeatherLink 5.4,2013-08-27 00:30:00,
2013-08-26 20:33:00,84.0,67.6,29.99,North,0,1.0,7.0,58,0.00,,,-99.99,WeatherLink 5.4,2013-08-27 00:33:00,
2013-08-26 21:00:00,83.2,67.9,29.99,North,0,1.0,6.0,60,0.00,,,-99.99,WeatherLink 5.4,2013-08-27 01:00:00,
2013-08-26 21:03:00,83.2,67.9,29.99,North,0,1.0,6.0,60,0.00,,,-99.99,WeatherLink 5.4,2013-08-27 01:03:00,
2013-08-26 21:30:00,82.4,69.0,30.00,North,0,0.0,3.0,64,0.00,,,-99.99,WeatherLink 5.4,2013-08-27 01:30:00,
2013-08-26 21:33:00,82.4,69.0,30.00,North,0,0.0,3.0,64,0.00,,,-99.99,WeatherLink 5.4,2013-08-27 01:33:00,
2013-08-26 22:00:00,81.6,69.1,30.01,North,0,0.0,5.0,66,0.00,,,-99.99,WeatherLink 5.4,2013-08-27 02:00:00,
2013-08-26 22:03:00,81.6,69.1,30.01,North,0,0.0,5.0,66,0.00,,,-99.99,WeatherLink 5.4,2013-08-27 02:03:00,
2013-08-26 22:30:00,80.9,69.3,30.01,North,0,0.0,2.0,68,0.00,,,-99.99,WeatherLink 5.4,2013-08-27 02:30:00,
2013-08-26 22:33:00,80.9,69.3,30.01,North,0,0.0,2.0,68,0.00,,,-99.99,WeatherLink 5.4,2013-08-27 02:33:00,
2013-08-26 23:00:00,80.1,69.0,30.01,North,0,0.0,3.0,69,0.00,,,-99.99,WeatherLink 5.4,2013-08-27 03:00:00,
2013-08-26 23:02:00,80.1,69.0,30.01,North,0,0.0,3.0,69,0.00,,,-99.99,WeatherLink 5.4,2013-08-27 03:02:00,
2013-08-26 23:30:00,79.8,69.6,30.00,North,0,0.0,2.0,71,0.00,,,-99.99,WeatherLink 5.4,2013-08-27 03:30:00,
2013-08-26 23:32:00,79.8,69.6,30.00,North,0,0.0,2.0,71,0.00,,,-99.99,WeatherLink 5.4,2013-08-27 03:32:00,